sensor_id;sensor_type;location;lat;lon;timestamp;temperature;humidity
11426;DHT22;5769;47.998;7.788;2022-07-09T00:02:05;22.30;63.60
11426;DHT22;5769;47.998;7.788;2022-07-09T00:04:33;22.20;63.60
11426;DHT22;5769;47.998;7.788;2022-07-09T00:07:00;22.20;63.60
11426;DHT22;5769;47.998;7.788;2022-07-09T00:09:28;22.20;63.50
11426;DHT22;5769;47.998;7.788;2022-07-09T00:11:57;22.30;63.60
11426;DHT22;5769;47.998;7.788;2022-07-09T00:14:24;22.30;63.80
11426;DHT22;5769;47.998;7.788;2022-07-09T00:16:51;22.30;63.80
11426;DHT22;5769;47.998;7.788;2022-07-09T00:19:19;22.20;63.80
11426;DHT22;5769;47.998;7.788;2022-07-09T00:21:46;22.20;63.60
11426;DHT22;5769;47.998;7.788;2022-07-09T00:24:14;22.20;63.60
11426;DHT22;5769;47.998;7.788;2022-07-09T00:26:41;22.30;63.60
11426;DHT22;5769;47.998;7.788;2022-07-09T00:29:10;22.20;63.60
11426;DHT22;5769;47.998;7.788;2022-07-09T00:31:38;22.30;63.60
11426;DHT22;5769;47.998;7.788;2022-07-09T00:34:06;22.30;63.60
11426;DHT22;5769;47.998;7.788;2022-07-09T00:36:33;22.30;63.60
11426;DHT22;5769;47.998;7.788;2022-07-09T00:39:01;22.30;63.70
11426;DHT22;5769;47.998;7.788;2022-07-09T00:41:28;22.20;63.60
11426;DHT22;5769;47.998;7.788;2022-07-09T00:43:55;22.20;63.50
11426;DHT22;5769;47.998;7.788;2022-07-09T00:46:25;22.20;63.50
11426;DHT22;5769;47.998;7.788;2022-07-09T00:48:52;22.20;63.50
11426;DHT22;5769;47.998;7.788;2022-07-09T00:51:20;22.20;63.50
11426;DHT22;5769;47.998;7.788;2022-07-09T00:53:48;22.20;63.60
11426;DHT22;5769;47.998;7.788;2022-07-09T00:56:17;22.20;63.50
11426;DHT22;5769;47.998;7.788;2022-07-09T00:58:45;22.20;63.60
11426;DHT22;5769;47.998;7.788;2022-07-09T01:01:13;22.20;63.50
11426;DHT22;5769;47.998;7.788;2022-07-09T01:03:42;22.20;63.50
11426;DHT22;5769;47.998;7.788;2022-07-09T01:06:09;22.20;63.50
11426;DHT22;5769;47.998;7.788;2022-07-09T01:08:37;22.20;63.50
11426;DHT22;5769;47.998;7.788;2022-07-09T01:11:04;22.20;63.50
11426;DHT22;5769;47.998;7.788;2022-07-09T01:13:32;22.20;63.50
11426;DHT22;5769;47.998;7.788;2022-07-09T01:16:03;22.20;63.50
11426;DHT22;5769;47.998;7.788;2022-07-09T01:18:31;22.20;63.50
11426;DHT22;5769;47.998;7.788;2022-07-09T01:21:09;22.20;63.50
11426;DHT22;5769;47.998;7.788;2022-07-09T01:23:53;22.20;63.50
11426;DHT22;5769;47.998;7.788;2022-07-09T01:26:26;22.20;63.50
11426;DHT22;5769;47.998;7.788;2022-07-09T01:28:54;22.20;63.50
11426;DHT22;5769;47.998;7.788;2022-07-09T01:31:21;22.20;63.50
11426;DHT22;5769;47.998;7.788;2022-07-09T01:33:49;22.20;63.50
11426;DHT22;5769;47.998;7.788;2022-07-09T01:36:23;22.20;63.60
11426;DHT22;5769;47.998;7.788;2022-07-09T01:38:50;22.20;63.50
11426;DHT22;5769;47.998;7.788;2022-07-09T01:44:17;22.20;63.50
11426;DHT22;5769;47.998;7.788;2022-07-09T01:46:50;22.20;63.60
11426;DHT22;5769;47.998;7.788;2022-07-09T01:49:18;22.20;63.50
11426;DHT22;5769;47.998;7.788;2022-07-09T01:52:00;22.20;63.50
11426;DHT22;5769;47.998;7.788;2022-07-09T01:54:33;22.20;63.60
11426;DHT22;5769;47.998;7.788;2022-07-09T01:57:01;22.20;63.50
11426;DHT22;5769;47.998;7.788;2022-07-09T01:59:58;22.20;63.60
11426;DHT22;5769;47.998;7.788;2022-07-09T02:02:51;22.20;63.50
11426;DHT22;5769;47.998;7.788;2022-07-09T02:05:20;22.20;63.50
11426;DHT22;5769;47.998;7.788;2022-07-09T02:08:01;22.20;63.40
11426;DHT22;5769;47.998;7.788;2022-07-09T02:10:31;22.20;63.50
11426;DHT22;5769;47.998;7.788;2022-07-09T02:13:00;22.20;63.50
11426;DHT22;5769;47.998;7.788;2022-07-09T02:15:29;22.20;63.50
11426;DHT22;5769;47.998;7.788;2022-07-09T02:17:57;22.20;63.50
11426;DHT22;5769;47.998;7.788;2022-07-09T02:20:25;22.20;63.40
11426;DHT22;5769;47.998;7.788;2022-07-09T02:22:56;22.20;63.50
11426;DHT22;5769;47.998;7.788;2022-07-09T02:25:24;22.10;63.40
11426;DHT22;5769;47.998;7.788;2022-07-09T02:27:50;22.20;63.40
11426;DHT22;5769;47.998;7.788;2022-07-09T02:30:17;22.20;63.50
11426;DHT22;5769;47.998;7.788;2022-07-09T02:32:44;22.20;63.50
11426;DHT22;5769;47.998;7.788;2022-07-09T02:35:11;22.20;63.50
11426;DHT22;5769;47.998;7.788;2022-07-09T02:37:38;22.20;63.50
11426;DHT22;5769;47.998;7.788;2022-07-09T02:40:07;22.20;63.50
11426;DHT22;5769;47.998;7.788;2022-07-09T02:42:34;22.10;63.40
11426;DHT22;5769;47.998;7.788;2022-07-09T02:45:02;22.10;63.50
11426;DHT22;5769;47.998;7.788;2022-07-09T02:47:29;22.20;63.50
11426;DHT22;5769;47.998;7.788;2022-07-09T02:49:56;22.10;62.80
11426;DHT22;5769;47.998;7.788;2022-07-09T02:52:22;22.10;63.60
11426;DHT22;5769;47.998;7.788;2022-07-09T02:54:49;22.10;63.50
11426;DHT22;5769;47.998;7.788;2022-07-09T02:57:17;22.10;63.60
11426;DHT22;5769;47.998;7.788;2022-07-09T02:59:45;22.20;63.60
11426;DHT22;5769;47.998;7.788;2022-07-09T03:02:12;22.10;63.60
11426;DHT22;5769;47.998;7.788;2022-07-09T03:04:39;22.10;63.50
11426;DHT22;5769;47.998;7.788;2022-07-09T03:07:05;22.10;63.50
11426;DHT22;5769;47.998;7.788;2022-07-09T03:09:32;22.10;63.50
11426;DHT22;5769;47.998;7.788;2022-07-09T03:11:59;22.10;63.50
11426;DHT22;5769;47.998;7.788;2022-07-09T03:14:27;22.20;63.50
11426;DHT22;5769;47.998;7.788;2022-07-09T03:16:54;22.10;63.50
11426;DHT22;5769;47.998;7.788;2022-07-09T03:19:21;22.10;63.50
11426;DHT22;5769;47.998;7.788;2022-07-09T03:21:47;22.10;63.40
11426;DHT22;5769;47.998;7.788;2022-07-09T03:24:14;22.10;63.40
11426;DHT22;5769;47.998;7.788;2022-07-09T03:26:41;22.10;63.40
11426;DHT22;5769;47.998;7.788;2022-07-09T03:29:07;22.10;63.40
11426;DHT22;5769;47.998;7.788;2022-07-09T03:31:35;22.10;63.30
11426;DHT22;5769;47.998;7.788;2022-07-09T03:34:02;22.10;63.30
11426;DHT22;5769;47.998;7.788;2022-07-09T03:36:31;22.10;63.40
11426;DHT22;5769;47.998;7.788;2022-07-09T03:38:58;22.10;63.30
11426;DHT22;5769;47.998;7.788;2022-07-09T03:41:25;22.10;63.30
11426;DHT22;5769;47.998;7.788;2022-07-09T03:43:51;22.10;63.20
11426;DHT22;5769;47.998;7.788;2022-07-09T03:46:18;22.10;63.30
11426;DHT22;5769;47.998;7.788;2022-07-09T03:48:46;22.10;63.30
11426;DHT22;5769;47.998;7.788;2022-07-09T03:51:14;22.10;63.30
11426;DHT22;5769;47.998;7.788;2022-07-09T03:53:41;22.10;63.20
11426;DHT22;5769;47.998;7.788;2022-07-09T03:56:07;22.10;63.30
11426;DHT22;5769;47.998;7.788;2022-07-09T03:58:35;22.10;63.20
11426;DHT22;5769;47.998;7.788;2022-07-09T04:01:03;22.10;63.20
11426;DHT22;5769;47.998;7.788;2022-07-09T04:03:30;22.10;63.20
11426;DHT22;5769;47.998;7.788;2022-07-09T04:05:58;22.10;63.10
11426;DHT22;5769;47.998;7.788;2022-07-09T04:08:24;22.10;63.10
11426;DHT22;5769;47.998;7.788;2022-07-09T04:10:51;22.10;63.10
11426;DHT22;5769;47.998;7.788;2022-07-09T04:13:18;22.10;63.00
11426;DHT22;5769;47.998;7.788;2022-07-09T04:15:44;22.10;63.00
11426;DHT22;5769;47.998;7.788;2022-07-09T04:18:12;22.10;63.10
11426;DHT22;5769;47.998;7.788;2022-07-09T04:20:39;22.10;63.00
11426;DHT22;5769;47.998;7.788;2022-07-09T04:23:07;22.10;63.00
11426;DHT22;5769;47.998;7.788;2022-07-09T04:25:34;22.10;62.90
11426;DHT22;5769;47.998;7.788;2022-07-09T04:28:01;22.10;63.00
11426;DHT22;5769;47.998;7.788;2022-07-09T04:30:27;22.10;63.00
11426;DHT22;5769;47.998;7.788;2022-07-09T04:32:54;22.10;63.00
11426;DHT22;5769;47.998;7.788;2022-07-09T04:35:21;22.10;62.80
11426;DHT22;5769;47.998;7.788;2022-07-09T04:37:47;22.10;62.70
11426;DHT22;5769;47.998;7.788;2022-07-09T04:40:15;22.10;62.70
11426;DHT22;5769;47.998;7.788;2022-07-09T04:42:42;22.10;62.90
11426;DHT22;5769;47.998;7.788;2022-07-09T04:45:10;22.10;62.90
11426;DHT22;5769;47.998;7.788;2022-07-09T04:47:37;22.10;63.50
11426;DHT22;5769;47.998;7.788;2022-07-09T04:50:04;22.10;62.80
11426;DHT22;5769;47.998;7.788;2022-07-09T04:52:31;22.10;62.70
11426;DHT22;5769;47.998;7.788;2022-07-09T04:54:58;22.10;62.60
11426;DHT22;5769;47.998;7.788;2022-07-09T04:57:26;22.10;62.60
11426;DHT22;5769;47.998;7.788;2022-07-09T04:59:56;22.10;62.30
11426;DHT22;5769;47.998;7.788;2022-07-09T05:02:23;22.10;62.40
11426;DHT22;5769;47.998;7.788;2022-07-09T05:04:50;22.10;62.60
11426;DHT22;5769;47.998;7.788;2022-07-09T05:07:17;22.10;62.80
11426;DHT22;5769;47.998;7.788;2022-07-09T05:09:44;22.10;62.60
11426;DHT22;5769;47.998;7.788;2022-07-09T05:12:10;22.10;62.50
11426;DHT22;5769;47.998;7.788;2022-07-09T05:14:39;22.10;62.50
11426;DHT22;5769;47.998;7.788;2022-07-09T05:17:06;22.10;62.60
11426;DHT22;5769;47.998;7.788;2022-07-09T05:19:32;22.10;62.50
11426;DHT22;5769;47.998;7.788;2022-07-09T05:21:59;22.00;62.20
11426;DHT22;5769;47.998;7.788;2022-07-09T05:24:27;22.10;62.30
11426;DHT22;5769;47.998;7.788;2022-07-09T05:26:53;22.10;62.50
11426;DHT22;5769;47.998;7.788;2022-07-09T05:29:20;22.00;62.60
11426;DHT22;5769;47.998;7.788;2022-07-09T05:31:49;22.10;62.70
11426;DHT22;5769;47.998;7.788;2022-07-09T05:34:16;22.10;62.70
11426;DHT22;5769;47.998;7.788;2022-07-09T05:36:43;22.10;62.60
11426;DHT22;5769;47.998;7.788;2022-07-09T05:39:10;22.10;62.70
11426;DHT22;5769;47.998;7.788;2022-07-09T05:41:37;22.10;62.60
11426;DHT22;5769;47.998;7.788;2022-07-09T05:44:04;22.10;62.40
11426;DHT22;5769;47.998;7.788;2022-07-09T05:46:31;22.10;62.40
11426;DHT22;5769;47.998;7.788;2022-07-09T05:48:59;22.10;62.40
11426;DHT22;5769;47.998;7.788;2022-07-09T05:51:25;22.00;62.30
11426;DHT22;5769;47.998;7.788;2022-07-09T05:53:52;22.10;62.30
11426;DHT22;5769;47.998;7.788;2022-07-09T05:56:19;22.10;62.30
11426;DHT22;5769;47.998;7.788;2022-07-09T05:58:46;22.10;62.20
11426;DHT22;5769;47.998;7.788;2022-07-09T06:01:13;22.10;62.20
11426;DHT22;5769;47.998;7.788;2022-07-09T06:03:40;22.10;62.20
11426;DHT22;5769;47.998;7.788;2022-07-09T06:06:10;22.10;62.10
11426;DHT22;5769;47.998;7.788;2022-07-09T06:08:37;22.10;62.10
11426;DHT22;5769;47.998;7.788;2022-07-09T06:11:03;22.00;62.00
11426;DHT22;5769;47.998;7.788;2022-07-09T06:13:30;22.10;62.00
11426;DHT22;5769;47.998;7.788;2022-07-09T06:15:57;22.10;62.00
11426;DHT22;5769;47.998;7.788;2022-07-09T06:18:24;22.10;62.00
11426;DHT22;5769;47.998;7.788;2022-07-09T06:20:51;22.10;62.00
11426;DHT22;5769;47.998;7.788;2022-07-09T06:23:19;22.10;62.00
11426;DHT22;5769;47.998;7.788;2022-07-09T06:25:47;22.10;62.10
11426;DHT22;5769;47.998;7.788;2022-07-09T06:28:13;22.10;62.00
11426;DHT22;5769;47.998;7.788;2022-07-09T06:30:40;22.10;62.00
11426;DHT22;5769;47.998;7.788;2022-07-09T06:33:07;22.10;62.00
11426;DHT22;5769;47.998;7.788;2022-07-09T06:35:34;22.10;62.00
11426;DHT22;5769;47.998;7.788;2022-07-09T06:38:01;22.10;61.90
11426;DHT22;5769;47.998;7.788;2022-07-09T06:40:29;22.10;61.90
11426;DHT22;5769;47.998;7.788;2022-07-09T06:42:56;22.10;61.90
11426;DHT22;5769;47.998;7.788;2022-07-09T06:45:23;22.10;61.90
11426;DHT22;5769;47.998;7.788;2022-07-09T06:47:50;22.10;61.90
11426;DHT22;5769;47.998;7.788;2022-07-09T06:50:18;22.10;61.90
11426;DHT22;5769;47.998;7.788;2022-07-09T06:52:45;22.10;61.90
11426;DHT22;5769;47.998;7.788;2022-07-09T06:55:12;22.10;61.90
11426;DHT22;5769;47.998;7.788;2022-07-09T06:57:40;22.10;61.80
11426;DHT22;5769;47.998;7.788;2022-07-09T07:00:07;22.10;61.80
11426;DHT22;5769;47.998;7.788;2022-07-09T07:02:34;22.10;61.80
11426;DHT22;5769;47.998;7.788;2022-07-09T07:05:01;22.10;61.80
11426;DHT22;5769;47.998;7.788;2022-07-09T07:07:28;22.10;61.80
11426;DHT22;5769;47.998;7.788;2022-07-09T07:09:55;22.10;61.70
11426;DHT22;5769;47.998;7.788;2022-07-09T07:12:22;22.10;61.60
11426;DHT22;5769;47.998;7.788;2022-07-09T07:14:50;22.10;61.60
11426;DHT22;5769;47.998;7.788;2022-07-09T07:17:17;22.10;61.50
11426;DHT22;5769;47.998;7.788;2022-07-09T07:19:44;22.10;61.50
11426;DHT22;5769;47.998;7.788;2022-07-09T07:22:10;22.10;61.50
11426;DHT22;5769;47.998;7.788;2022-07-09T07:24:37;22.10;61.40
11426;DHT22;5769;47.998;7.788;2022-07-09T07:27:04;22.10;61.40
11426;DHT22;5769;47.998;7.788;2022-07-09T07:29:31;22.10;61.40
11426;DHT22;5769;47.998;7.788;2022-07-09T07:31:59;22.10;61.30
11426;DHT22;5769;47.998;7.788;2022-07-09T07:34:26;22.10;61.30
11426;DHT22;5769;47.998;7.788;2022-07-09T07:36:53;22.10;61.20
11426;DHT22;5769;47.998;7.788;2022-07-09T07:39:20;22.10;61.20
11426;DHT22;5769;47.998;7.788;2022-07-09T07:41:50;22.10;61.20
11426;DHT22;5769;47.998;7.788;2022-07-09T07:44:17;22.10;61.20
11426;DHT22;5769;47.998;7.788;2022-07-09T07:46:43;22.10;61.10
11426;DHT22;5769;47.998;7.788;2022-07-09T07:49:12;22.10;61.10
11426;DHT22;5769;47.998;7.788;2022-07-09T07:51:38;22.10;61.20
11426;DHT22;5769;47.998;7.788;2022-07-09T07:54:05;22.10;61.10
11426;DHT22;5769;47.998;7.788;2022-07-09T07:56:32;22.10;61.20
11426;DHT22;5769;47.998;7.788;2022-07-09T07:59:02;22.10;61.20
11426;DHT22;5769;47.998;7.788;2022-07-09T08:01:29;22.10;61.20
11426;DHT22;5769;47.998;7.788;2022-07-09T08:03:55;22.10;61.20
11426;DHT22;5769;47.998;7.788;2022-07-09T08:06:24;22.10;61.20
11426;DHT22;5769;47.998;7.788;2022-07-09T08:08:51;22.10;61.10
11426;DHT22;5769;47.998;7.788;2022-07-09T08:11:18;22.10;61.20
11426;DHT22;5769;47.998;7.788;2022-07-09T08:13:44;22.10;61.20
11426;DHT22;5769;47.998;7.788;2022-07-09T08:16:11;22.10;61.20
11426;DHT22;5769;47.998;7.788;2022-07-09T08:18:38;22.10;61.40
11426;DHT22;5769;47.998;7.788;2022-07-09T08:21:05;22.10;61.20
11426;DHT22;5769;47.998;7.788;2022-07-09T08:23:33;22.10;61.20
11426;DHT22;5769;47.998;7.788;2022-07-09T08:26:17;22.10;61.20
11426;DHT22;5769;47.998;7.788;2022-07-09T08:28:44;22.10;61.20
11426;DHT22;5769;47.998;7.788;2022-07-09T08:31:11;22.10;61.20
11426;DHT22;5769;47.998;7.788;2022-07-09T08:33:37;22.10;61.20
11426;DHT22;5769;47.998;7.788;2022-07-09T08:36:05;22.10;61.20
11426;DHT22;5769;47.998;7.788;2022-07-09T08:38:33;22.10;61.20
11426;DHT22;5769;47.998;7.788;2022-07-09T08:41:00;22.10;61.20
11426;DHT22;5769;47.998;7.788;2022-07-09T08:43:32;22.10;61.40
11426;DHT22;5769;47.998;7.788;2022-07-09T08:45:59;22.10;61.60
11426;DHT22;5769;47.998;7.788;2022-07-09T08:48:26;22.10;61.30
11426;DHT22;5769;47.998;7.788;2022-07-09T08:50:52;22.10;61.40
11426;DHT22;5769;47.998;7.788;2022-07-09T08:53:19;22.10;61.40
11426;DHT22;5769;47.998;7.788;2022-07-09T08:55:48;22.10;61.50
11426;DHT22;5769;47.998;7.788;2022-07-09T08:58:14;22.10;61.40
11426;DHT22;5769;47.998;7.788;2022-07-09T09:00:41;22.10;61.40
11426;DHT22;5769;47.998;7.788;2022-07-09T09:03:08;22.10;61.40
11426;DHT22;5769;47.998;7.788;2022-07-09T09:05:35;22.10;61.40
11426;DHT22;5769;47.998;7.788;2022-07-09T09:08:17;22.10;61.40
11426;DHT22;5769;47.998;7.788;2022-07-09T09:10:45;22.10;61.50
11426;DHT22;5769;47.998;7.788;2022-07-09T09:13:15;22.10;61.50
11426;DHT22;5769;47.998;7.788;2022-07-09T09:15:42;22.10;61.50
11426;DHT22;5769;47.998;7.788;2022-07-09T09:18:09;22.10;61.50
11426;DHT22;5769;47.998;7.788;2022-07-09T09:20:36;22.10;61.40
11426;DHT22;5769;47.998;7.788;2022-07-09T09:23:03;22.10;62.20
11426;DHT22;5769;47.998;7.788;2022-07-09T09:25:36;22.10;61.80
11426;DHT22;5769;47.998;7.788;2022-07-09T09:28:03;22.10;61.70
11426;DHT22;5769;47.998;7.788;2022-07-09T09:30:31;22.10;61.70
11426;DHT22;5769;47.998;7.788;2022-07-09T09:32:59;22.20;61.80
11426;DHT22;5769;47.998;7.788;2022-07-09T09:35:27;22.10;61.80
11426;DHT22;5769;47.998;7.788;2022-07-09T09:37:55;22.10;61.80
11426;DHT22;5769;47.998;7.788;2022-07-09T09:40:23;22.20;61.80
11426;DHT22;5769;47.998;7.788;2022-07-09T09:42:51;22.20;61.70
11426;DHT22;5769;47.998;7.788;2022-07-09T09:45:19;22.20;61.80
11426;DHT22;5769;47.998;7.788;2022-07-09T09:47:48;22.10;61.80
11426;DHT22;5769;47.998;7.788;2022-07-09T09:50:18;22.20;61.60
11426;DHT22;5769;47.998;7.788;2022-07-09T09:52:47;22.10;61.70
11426;DHT22;5769;47.998;7.788;2022-07-09T09:55:15;22.10;61.60
11426;DHT22;5769;47.998;7.788;2022-07-09T09:57:42;22.10;61.30
11426;DHT22;5769;47.998;7.788;2022-07-09T10:00:10;22.20;61.90
11426;DHT22;5769;47.998;7.788;2022-07-09T10:02:39;22.10;61.30
11426;DHT22;5769;47.998;7.788;2022-07-09T10:05:10;22.20;61.30
11426;DHT22;5769;47.998;7.788;2022-07-09T10:07:38;22.10;61.40
11426;DHT22;5769;47.998;7.788;2022-07-09T10:10:07;22.10;61.30
11426;DHT22;5769;47.998;7.788;2022-07-09T10:12:35;22.20;61.40
11426;DHT22;5769;47.998;7.788;2022-07-09T10:15:08;22.10;61.30
11426;DHT22;5769;47.998;7.788;2022-07-09T10:17:39;22.10;61.40
11426;DHT22;5769;47.998;7.788;2022-07-09T10:20:07;22.10;61.50
11426;DHT22;5769;47.998;7.788;2022-07-09T10:22:38;22.20;61.90
11426;DHT22;5769;47.998;7.788;2022-07-09T10:25:07;22.10;61.80
11426;DHT22;5769;47.998;7.788;2022-07-09T10:27:43;22.10;61.50
11426;DHT22;5769;47.998;7.788;2022-07-09T10:30:25;22.10;61.40
11426;DHT22;5769;47.998;7.788;2022-07-09T10:33:03;22.20;61.40
11426;DHT22;5769;47.998;7.788;2022-07-09T10:35:31;22.10;61.20
11426;DHT22;5769;47.998;7.788;2022-07-09T10:38:06;22.10;61.30
11426;DHT22;5769;47.998;7.788;2022-07-09T10:40:38;22.10;61.30
11426;DHT22;5769;47.998;7.788;2022-07-09T10:43:06;22.10;61.30
11426;DHT22;5769;47.998;7.788;2022-07-09T10:45:37;22.10;61.30
11426;DHT22;5769;47.998;7.788;2022-07-09T10:48:05;22.10;61.30
11426;DHT22;5769;47.998;7.788;2022-07-09T10:50:36;22.10;61.40
11426;DHT22;5769;47.998;7.788;2022-07-09T10:53:03;22.10;61.30
11426;DHT22;5769;47.998;7.788;2022-07-09T10:55:32;22.10;61.40
11426;DHT22;5769;47.998;7.788;2022-07-09T10:57:59;22.10;61.40
11426;DHT22;5769;47.998;7.788;2022-07-09T11:00:29;22.10;61.50
11426;DHT22;5769;47.998;7.788;2022-07-09T11:02:58;22.10;61.40
11426;DHT22;5769;47.998;7.788;2022-07-09T11:05:26;22.10;61.40
11426;DHT22;5769;47.998;7.788;2022-07-09T11:07:55;22.10;61.30
11426;DHT22;5769;47.998;7.788;2022-07-09T11:10:22;22.10;61.40
11426;DHT22;5769;47.998;7.788;2022-07-09T11:12:50;22.10;61.40
11426;DHT22;5769;47.998;7.788;2022-07-09T11:15:17;22.10;61.40
11426;DHT22;5769;47.998;7.788;2022-07-09T11:17:44;22.10;61.50
11426;DHT22;5769;47.998;7.788;2022-07-09T11:20:20;22.10;61.50
11426;DHT22;5769;47.998;7.788;2022-07-09T11:22:47;22.10;61.50
11426;DHT22;5769;47.998;7.788;2022-07-09T11:25:14;22.10;61.50
11426;DHT22;5769;47.998;7.788;2022-07-09T11:27:41;22.10;61.50
11426;DHT22;5769;47.998;7.788;2022-07-09T11:30:13;22.10;61.60
11426;DHT22;5769;47.998;7.788;2022-07-09T11:32:41;22.10;61.70
11426;DHT22;5769;47.998;7.788;2022-07-09T11:35:08;22.10;61.50
11426;DHT22;5769;47.998;7.788;2022-07-09T11:37:35;22.10;61.50
11426;DHT22;5769;47.998;7.788;2022-07-09T11:40:02;22.10;61.50
11426;DHT22;5769;47.998;7.788;2022-07-09T11:42:29;22.20;61.50
11426;DHT22;5769;47.998;7.788;2022-07-09T11:44:57;22.10;61.40
11426;DHT22;5769;47.998;7.788;2022-07-09T11:47:34;22.10;61.50
11426;DHT22;5769;47.998;7.788;2022-07-09T11:50:05;22.10;61.50
11426;DHT22;5769;47.998;7.788;2022-07-09T11:52:32;22.10;61.70
11426;DHT22;5769;47.998;7.788;2022-07-09T11:55:00;22.10;61.50
11426;DHT22;5769;47.998;7.788;2022-07-09T11:57:29;22.20;61.80
11426;DHT22;5769;47.998;7.788;2022-07-09T12:00:20;22.10;61.70
11426;DHT22;5769;47.998;7.788;2022-07-09T12:02:54;22.20;61.70
11426;DHT22;5769;47.998;7.788;2022-07-09T12:05:29;22.20;61.60
11426;DHT22;5769;47.998;7.788;2022-07-09T12:08:03;22.10;61.50
11426;DHT22;5769;47.998;7.788;2022-07-09T12:10:43;22.10;61.60
11426;DHT22;5769;47.998;7.788;2022-07-09T12:13:24;22.10;61.60
11426;DHT22;5769;47.998;7.788;2022-07-09T12:16:00;22.10;61.50
11426;DHT22;5769;47.998;7.788;2022-07-09T12:18:51;22.10;61.60
11426;DHT22;5769;47.998;7.788;2022-07-09T12:22:08;22.10;61.60
11426;DHT22;5769;47.998;7.788;2022-07-09T12:24:42;22.10;61.50
11426;DHT22;5769;47.998;7.788;2022-07-09T12:27:09;22.10;61.80
11426;DHT22;5769;47.998;7.788;2022-07-09T12:29:37;22.10;61.90
11426;DHT22;5769;47.998;7.788;2022-07-09T12:32:13;22.20;62.10
11426;DHT22;5769;47.998;7.788;2022-07-09T12:34:44;22.20;62.10
11426;DHT22;5769;47.998;7.788;2022-07-09T12:37:11;22.20;62.50
11426;DHT22;5769;47.998;7.788;2022-07-09T12:39:39;22.20;62.80
11426;DHT22;5769;47.998;7.788;2022-07-09T12:42:08;22.30;63.20
11426;DHT22;5769;47.998;7.788;2022-07-09T12:44:35;22.30;63.60
11426;DHT22;5769;47.998;7.788;2022-07-09T12:47:12;22.30;63.70
11426;DHT22;5769;47.998;7.788;2022-07-09T12:49:55;22.30;63.90
11426;DHT22;5769;47.998;7.788;2022-07-09T12:52:29;22.30;64.10
11426;DHT22;5769;47.998;7.788;2022-07-09T12:55:09;22.30;64.00
11426;DHT22;5769;47.998;7.788;2022-07-09T12:57:42;22.40;64.10
11426;DHT22;5769;47.998;7.788;2022-07-09T13:00:13;22.40;64.00
11426;DHT22;5769;47.998;7.788;2022-07-09T13:02:41;22.40;63.90
11426;DHT22;5769;47.998;7.788;2022-07-09T13:05:10;22.50;64.10
11426;DHT22;5769;47.998;7.788;2022-07-09T13:10:11;22.60;64.10
11426;DHT22;5769;47.998;7.788;2022-07-09T13:12:37;22.50;64.00
11426;DHT22;5769;47.998;7.788;2022-07-09T13:15:05;22.50;64.00
11426;DHT22;5769;47.998;7.788;2022-07-09T13:17:32;22.50;64.00
11426;DHT22;5769;47.998;7.788;2022-07-09T13:19:59;22.50;64.00
11426;DHT22;5769;47.998;7.788;2022-07-09T13:22:27;22.50;63.90
11426;DHT22;5769;47.998;7.788;2022-07-09T13:24:53;22.50;63.80
11426;DHT22;5769;47.998;7.788;2022-07-09T13:27:20;22.50;63.50
11426;DHT22;5769;47.998;7.788;2022-07-09T13:29:47;22.50;63.50
11426;DHT22;5769;47.998;7.788;2022-07-09T13:32:13;22.50;63.60
11426;DHT22;5769;47.998;7.788;2022-07-09T13:34:40;22.40;63.50
11426;DHT22;5769;47.998;7.788;2022-07-09T13:37:07;22.40;63.30
11426;DHT22;5769;47.998;7.788;2022-07-09T13:39:35;22.40;63.30
11426;DHT22;5769;47.998;7.788;2022-07-09T13:42:02;22.40;63.40
11426;DHT22;5769;47.998;7.788;2022-07-09T13:44:29;22.40;63.40
11426;DHT22;5769;47.998;7.788;2022-07-09T13:46:56;22.40;63.30
11426;DHT22;5769;47.998;7.788;2022-07-09T13:49:23;22.40;63.20
11426;DHT22;5769;47.998;7.788;2022-07-09T13:51:50;22.40;62.80
11426;DHT22;5769;47.998;7.788;2022-07-09T13:54:17;22.40;62.80
11426;DHT22;5769;47.998;7.788;2022-07-09T13:56:45;22.40;63.30
11426;DHT22;5769;47.998;7.788;2022-07-09T13:59:12;22.40;63.40
11426;DHT22;5769;47.998;7.788;2022-07-09T14:01:39;22.50;63.50
11426;DHT22;5769;47.998;7.788;2022-07-09T14:04:06;22.50;63.50
11426;DHT22;5769;47.998;7.788;2022-07-09T14:06:32;22.50;63.50
11426;DHT22;5769;47.998;7.788;2022-07-09T14:08:59;22.40;63.50
11426;DHT22;5769;47.998;7.788;2022-07-09T14:11:26;22.50;63.50
11426;DHT22;5769;47.998;7.788;2022-07-09T14:13:54;22.50;63.40
11426;DHT22;5769;47.998;7.788;2022-07-09T14:16:22;22.50;63.40
11426;DHT22;5769;47.998;7.788;2022-07-09T14:18:48;22.50;63.30
11426;DHT22;5769;47.998;7.788;2022-07-09T14:21:15;22.50;63.10
11426;DHT22;5769;47.998;7.788;2022-07-09T14:23:42;22.50;63.10
11426;DHT22;5769;47.998;7.788;2022-07-09T14:26:13;22.50;63.10
11426;DHT22;5769;47.998;7.788;2022-07-09T14:28:40;22.50;63.20
11426;DHT22;5769;47.998;7.788;2022-07-09T14:31:08;22.50;63.20
11426;DHT22;5769;47.998;7.788;2022-07-09T14:33:35;22.50;62.80
11426;DHT22;5769;47.998;7.788;2022-07-09T14:36:02;22.60;63.00
11426;DHT22;5769;47.998;7.788;2022-07-09T14:38:28;22.60;63.20
11426;DHT22;5769;47.998;7.788;2022-07-09T14:40:55;22.60;62.90
11426;DHT22;5769;47.998;7.788;2022-07-09T14:43:22;22.60;62.80
11426;DHT22;5769;47.998;7.788;2022-07-09T14:45:48;22.60;62.90
11426;DHT22;5769;47.998;7.788;2022-07-09T14:48:16;22.60;63.00
11426;DHT22;5769;47.998;7.788;2022-07-09T14:50:43;22.60;63.10
11426;DHT22;5769;47.998;7.788;2022-07-09T14:53:10;22.60;63.10
11426;DHT22;5769;47.998;7.788;2022-07-09T14:55:37;22.60;62.70
11426;DHT22;5769;47.998;7.788;2022-07-09T14:58:03;22.60;62.90
11426;DHT22;5769;47.998;7.788;2022-07-09T15:00:30;22.60;63.20
11426;DHT22;5769;47.998;7.788;2022-07-09T15:02:57;22.60;63.30
11426;DHT22;5769;47.998;7.788;2022-07-09T15:05:26;22.60;63.30
11426;DHT22;5769;47.998;7.788;2022-07-09T15:07:53;22.60;63.30
11426;DHT22;5769;47.998;7.788;2022-07-09T15:10:20;22.60;63.30
11426;DHT22;5769;47.998;7.788;2022-07-09T15:12:47;22.60;63.20
11426;DHT22;5769;47.998;7.788;2022-07-09T15:15:14;22.60;63.20
11426;DHT22;5769;47.998;7.788;2022-07-09T15:17:41;22.60;63.10
11426;DHT22;5769;47.998;7.788;2022-07-09T15:20:09;22.60;63.10
11426;DHT22;5769;47.998;7.788;2022-07-09T15:22:37;22.60;63.10
11426;DHT22;5769;47.998;7.788;2022-07-09T15:25:06;22.60;63.10
11426;DHT22;5769;47.998;7.788;2022-07-09T15:27:33;22.70;63.10
11426;DHT22;5769;47.998;7.788;2022-07-09T15:30:01;22.60;63.10
11426;DHT22;5769;47.998;7.788;2022-07-09T15:32:27;22.60;63.80
11426;DHT22;5769;47.998;7.788;2022-07-09T15:34:54;22.60;62.60
11426;DHT22;5769;47.998;7.788;2022-07-09T15:37:21;22.70;63.00
11426;DHT22;5769;47.998;7.788;2022-07-09T15:39:49;22.70;63.00
11426;DHT22;5769;47.998;7.788;2022-07-09T15:42:16;22.70;63.00
11426;DHT22;5769;47.998;7.788;2022-07-09T15:44:43;22.60;62.90
11426;DHT22;5769;47.998;7.788;2022-07-09T15:47:10;22.70;63.00
11426;DHT22;5769;47.998;7.788;2022-07-09T15:49:36;22.60;62.90
11426;DHT22;5769;47.998;7.788;2022-07-09T15:52:04;22.60;62.80
11426;DHT22;5769;47.998;7.788;2022-07-09T15:54:31;22.70;62.70
11426;DHT22;5769;47.998;7.788;2022-07-09T15:56:59;22.60;62.70
11426;DHT22;5769;47.998;7.788;2022-07-09T15:59:26;22.70;63.00